createdAt,value
2023-03-29T00:01:50.254Z,1.60
2023-03-29T00:05:57.469Z,1.83
2023-03-29T00:10:00.210Z,1.65
2023-03-29T00:14:03.000Z,1.67
2023-03-29T00:18:05.881Z,1.80
2023-03-29T00:22:10.008Z,1.98
2023-03-29T00:30:16.184Z,2.50
2023-03-29T00:34:18.984Z,2.20
2023-03-29T00:38:23.069Z,2.40
2023-03-29T00:50:36.462Z,1.95
2023-03-29T00:54:41.299Z,2.00
2023-03-29T00:58:45.872Z,2.10
2023-03-29T01:02:54.568Z,2.20
2023-03-29T01:06:59.701Z,2.22
2023-03-29T01:11:08.246Z,2.33
2023-03-29T01:15:12.746Z,1.85
2023-03-29T01:19:21.451Z,2.05
2023-03-29T01:23:38.836Z,2.40
2023-03-29T01:27:52.748Z,2.22
2023-03-29T01:31:59.465Z,2.63
2023-03-29T01:36:06.337Z,2.13
2023-03-29T01:40:09.707Z,1.90
2023-03-29T01:44:18.452Z,2.00
2023-03-29T01:48:25.879Z,2.10
2023-03-29T01:52:34.845Z,2.28
2023-03-29T01:56:40.147Z,2.15
2023-03-29T02:00:45.240Z,2.00
2023-03-29T02:04:51.794Z,2.10
2023-03-29T02:08:55.785Z,1.95
2023-03-29T02:12:58.990Z,1.92
2023-03-29T02:17:16.642Z,1.85
2023-03-29T02:21:25.531Z,2.30
2023-03-29T02:25:28.441Z,2.00
2023-03-29T02:29:31.393Z,2.13
2023-03-29T02:33:39.471Z,2.42
2023-03-29T02:37:44.223Z,2.60
2023-03-29T02:41:48.653Z,2.70
2023-03-29T02:49:55.482Z,2.75
2023-03-29T02:54:01.981Z,2.90
2023-03-29T02:58:08.466Z,2.88
2023-03-29T03:02:13.801Z,2.50
2023-03-29T03:06:18.375Z,3.65
2023-03-29T03:10:21.272Z,2.72
2023-03-29T03:14:24.077Z,3.00
2023-03-29T03:18:27.692Z,2.65
2023-03-29T03:22:32.500Z,2.65
2023-03-29T03:26:36.257Z,3.10
2023-03-29T03:30:39.236Z,3.13
2023-03-29T03:34:41.915Z,3.00
2023-03-29T03:38:46.320Z,2.83
2023-03-29T03:46:51.698Z,3.10
2023-03-29T03:50:57.007Z,3.05
2023-03-29T03:55:02.835Z,3.17
2023-03-29T03:59:07.168Z,2.97
2023-03-29T04:07:13.151Z,2.97
2023-03-29T04:11:17.349Z,2.92
2023-03-29T04:15:20.392Z,2.55
2023-03-29T04:19:23.410Z,3.97
2023-03-29T04:23:26.174Z,3.42
2023-03-29T04:27:31.006Z,3.47
2023-03-29T04:31:33.922Z,3.25
2023-03-29T04:35:36.964Z,3.13
2023-03-29T04:39:39.834Z,3.25
2023-03-29T04:43:46.904Z,3.70
2023-03-29T04:47:49.757Z,3.70
2023-03-29T04:51:53.374Z,3.58
2023-03-29T04:55:57.980Z,5.57
2023-03-29T05:00:02.163Z,5.78
2023-03-29T05:04:05.881Z,6.00
2023-03-29T05:08:09.611Z,6.35
2023-03-29T05:12:12.352Z,8.90
2023-03-29T05:16:16.984Z,7.18
2023-03-29T05:20:19.946Z,6.30
2023-03-29T05:24:23.126Z,7.53
2023-03-29T05:28:26.407Z,6.30
2023-03-29T05:32:31.340Z,7.03
2023-03-29T05:36:34.569Z,7.18
2023-03-29T05:40:37.331Z,8.70
2023-03-29T05:44:40.055Z,9.88
2023-03-29T05:48:44.264Z,7.55
2023-03-29T05:52:47.940Z,7.85
2023-03-29T05:56:51.209Z,9.90
2023-03-29T06:00:53.995Z,8.95
2023-03-29T06:04:58.201Z,12.90
2023-03-29T06:09:02.331Z,11.48
2023-03-29T06:13:06.139Z,11.15
2023-03-29T06:17:09.015Z,13.95
2023-03-29T06:21:16.341Z,10.65
2023-03-29T06:25:19.822Z,13.85
2023-03-29T06:29:22.552Z,16.23
2023-03-29T06:33:25.406Z,14.80
2023-03-29T06:37:30.481Z,14.80
2023-03-29T06:41:33.156Z,17.58
2023-03-29T06:45:37.721Z,15.63
2023-03-29T06:49:40.714Z,14.07
2023-03-29T06:53:44.933Z,12.20
2023-03-29T06:57:48.087Z,11.45
2023-03-29T07:01:52.617Z,9.38
2023-03-29T07:06:01.431Z,9.02
2023-03-29T07:10:06.474Z,9.25
2023-03-29T07:14:09.802Z,6.85
2023-03-29T07:18:13.238Z,7.50
2023-03-29T07:22:16.439Z,8.18
2023-03-29T07:26:29.402Z,9.82
2023-03-29T07:30:33.174Z,6.40
2023-03-29T07:34:36.982Z,7.05
2023-03-29T07:38:40.145Z,7.95
2023-03-29T07:42:45.084Z,6.05
2023-03-29T07:46:48.421Z,6.18
2023-03-29T07:50:51.529Z,6.97
2023-03-29T07:54:54.256Z,6.10
2023-03-29T07:58:58.252Z,5.93
2023-03-29T08:03:02.048Z,6.70
2023-03-29T08:07:05.904Z,8.07
2023-03-29T08:11:10.144Z,7.70
2023-03-29T08:15:15.290Z,6.88
2023-03-29T08:19:18.367Z,7.03
2023-03-29T08:23:21.286Z,4.35
2023-03-29T08:27:24.181Z,6.90
2023-03-29T08:31:28.501Z,5.90
2023-03-29T08:35:31.651Z,4.93
2023-03-29T08:39:35.473Z,5.28
2023-03-29T08:43:50.489Z,4.10
2023-03-29T08:47:59.509Z,4.38
2023-03-29T08:52:04.617Z,3.75
2023-03-29T08:56:10.525Z,3.05
2023-03-29T09:00:21.668Z,3.00
2023-03-29T09:04:28.418Z,4.45
2023-03-29T09:08:31.506Z,4.03
2023-03-29T09:12:44.302Z,3.28
2023-03-29T09:16:52.955Z,3.90
2023-03-29T09:21:02.188Z,3.72
2023-03-29T09:25:11.661Z,3.80
2023-03-29T09:29:32.013Z,3.40
2023-03-29T09:33:42.782Z,3.67
2023-03-29T09:37:47.569Z,3.15
2023-03-29T09:41:52.813Z,3.35
2023-03-29T09:45:57.262Z,3.00
2023-03-29T09:50:04.337Z,3.50
2023-03-29T09:54:11.148Z,3.63
2023-03-29T09:58:17.056Z,3.40
2023-03-29T10:02:21.121Z,3.00
2023-03-29T10:06:26.835Z,3.25
2023-03-29T10:10:32.954Z,3.50
2023-03-29T10:14:38.347Z,3.20
2023-03-29T10:18:42.597Z,2.88
2023-03-29T10:22:50.112Z,2.47
2023-03-29T10:26:55.823Z,2.90
2023-03-29T10:31:00.720Z,2.92
2023-03-29T10:35:09.734Z,2.63
2023-03-29T10:39:15.558Z,2.80
2023-03-29T10:43:24.558Z,2.80
2023-03-29T10:47:28.086Z,2.90
2023-03-29T10:51:31.228Z,3.13
2023-03-29T10:59:41.963Z,3.08
2023-03-29T11:04:00.589Z,2.92
2023-03-29T11:08:14.974Z,2.42
2023-03-29T11:12:20.880Z,2.30
2023-03-29T11:16:30.765Z,1.90
2023-03-29T11:20:39.956Z,2.08
2023-03-29T11:24:53.719Z,1.90
2023-03-29T11:28:59.375Z,1.70
2023-03-29T11:33:13.905Z,2.10
2023-03-29T11:37:20.641Z,2.05
2023-03-29T11:41:25.773Z,1.80
2023-03-29T11:45:31.363Z,1.98
2023-03-29T11:49:39.533Z,2.08
2023-03-29T11:53:47.540Z,1.90
2023-03-29T11:57:54.020Z,1.60
2023-03-29T12:02:03.370Z,1.58
2023-03-29T12:06:14.419Z,1.30
2023-03-29T12:10:19.704Z,1.80
2023-03-29T12:14:28.094Z,1.58
2023-03-29T12:18:34.456Z,1.40
2023-03-29T12:22:39.103Z,1.55
2023-03-29T12:26:51.792Z,1.42
2023-03-29T12:31:00.193Z,1.55
2023-03-29T12:35:22.162Z,1.42
2023-03-29T12:43:32.464Z,1.70
2023-03-29T12:47:43.374Z,1.92
2023-03-29T12:51:46.474Z,2.10
2023-03-29T12:55:55.933Z,1.70
2023-03-29T13:00:12.341Z,1.70
2023-03-29T13:04:20.350Z,1.42
2023-03-29T13:08:24.571Z,1.50
2023-03-29T13:12:32.948Z,1.60
2023-03-29T13:16:36.972Z,3.08
2023-03-29T13:20:46.744Z,1.77
2023-03-29T13:25:08.285Z,1.60
2023-03-29T13:29:33.727Z,1.75
2023-03-29T13:33:46.285Z,1.90
2023-03-29T13:37:57.064Z,1.50
2023-03-29T13:42:09.825Z,1.40
2023-03-29T13:46:23.272Z,1.30
2023-03-29T13:50:34.633Z,1.67
2023-03-29T13:54:41.878Z,1.48
2023-03-29T13:58:48.170Z,1.65
2023-03-29T14:02:55.229Z,1.90
2023-03-29T14:06:58.942Z,2.00
2023-03-29T14:11:02.378Z,3.10
2023-03-29T14:15:07.472Z,2.10
2023-03-29T14:19:16.451Z,2.03
2023-03-29T14:23:22.297Z,2.00
2023-03-29T14:27:24.997Z,1.85
2023-03-29T14:31:31.705Z,1.92
2023-03-29T14:35:36.364Z,2.75
2023-03-29T14:39:41.011Z,1.90
2023-03-29T14:43:43.779Z,2.35
2023-03-29T14:47:47.493Z,2.15
2023-03-29T14:51:52.929Z,2.03
2023-03-29T14:55:56.773Z,1.70
2023-03-29T15:00:02.258Z,1.77
2023-03-29T15:04:07.204Z,1.83
2023-03-29T15:08:15.457Z,1.85
2023-03-29T15:12:18.695Z,1.90
2023-03-29T15:16:22.812Z,1.92
2023-03-29T15:20:27.333Z,1.90
2023-03-29T15:24:33.463Z,2.75
2023-03-29T15:28:37.277Z,2.50
2023-03-29T15:32:41.499Z,2.20
2023-03-29T15:36:46.645Z,2.25
2023-03-29T15:40:51.004Z,2.50
2023-03-29T15:44:56.375Z,2.17
2023-03-29T15:48:59.469Z,2.00
2023-03-29T15:53:14.159Z,2.17
2023-03-29T15:57:23.661Z,1.80
2023-03-29T16:01:33.813Z,1.75
2023-03-29T16:05:36.813Z,2.13
2023-03-29T16:09:39.768Z,1.77
2023-03-29T16:13:44.177Z,1.73
2023-03-29T16:17:47.307Z,2.35
2023-03-29T16:21:50.606Z,1.85
2023-03-29T16:25:53.480Z,1.50
2023-03-29T16:29:58.954Z,1.88
2023-03-29T16:34:01.817Z,1.63
2023-03-29T16:38:04.841Z,1.70
2023-03-29T16:42:07.611Z,1.98
2023-03-29T16:46:12.881Z,1.90
2023-03-29T16:50:18.109Z,1.80
2023-03-29T16:54:20.956Z,1.92
2023-03-29T16:58:24.181Z,2.40
2023-03-29T17:06:32.313Z,2.17
2023-03-29T17:10:35.013Z,2.60
2023-03-29T17:14:38.154Z,2.45
2023-03-29T17:22:45.154Z,2.20
2023-03-29T17:26:48.031Z,2.50
2023-03-29T17:30:50.980Z,2.63
2023-03-29T17:34:55.145Z,2.40
2023-03-29T17:43:02.940Z,2.60
2023-03-29T17:47:05.926Z,2.08
2023-03-29T17:51:10.368Z,1.73
2023-03-29T17:55:13.929Z,2.30
2023-03-29T17:59:16.691Z,1.80
2023-03-29T18:03:19.809Z,2.40
2023-03-29T18:07:23.995Z,2.10
2023-03-29T18:11:27.308Z,2.53
2023-03-29T18:15:30.050Z,2.60
2023-03-29T18:19:32.852Z,2.75
2023-03-29T18:23:39.754Z,2.63
2023-03-29T18:27:42.543Z,3.15
2023-03-29T18:31:45.997Z,2.95
2023-03-29T18:39:54.840Z,2.63
2023-03-29T18:44:00.124Z,3.40
2023-03-29T18:48:05.610Z,2.83
2023-03-29T18:52:09.102Z,3.22
2023-03-29T18:56:13.458Z,2.40
2023-03-29T19:00:17.567Z,2.17
2023-03-29T19:04:20.671Z,3.45
2023-03-29T19:08:23.916Z,2.88
2023-03-29T19:12:28.075Z,4.78
2023-03-29T19:16:31.064Z,4.45
2023-03-29T19:20:33.912Z,3.30
2023-03-29T19:24:36.808Z,3.20
2023-03-29T19:28:40.864Z,2.95
2023-03-29T19:32:43.632Z,2.88
2023-03-29T19:36:47.138Z,3.53
2023-03-29T19:40:51.553Z,3.47
2023-03-29T19:44:55.671Z,3.45
2023-03-29T19:48:59.819Z,3.33
2023-03-29T19:53:02.522Z,4.18
2023-03-29T19:57:07.353Z,4.22
2023-03-29T20:01:11.678Z,3.53
2023-03-29T20:05:16.306Z,3.70
2023-03-29T20:09:19.092Z,3.85
2023-03-29T20:13:31.261Z,3.92
2023-03-29T20:17:41.649Z,4.05
2023-03-29T20:21:44.488Z,3.63
2023-03-29T20:25:47.996Z,3.70
2023-03-29T20:29:50.763Z,3.75
2023-03-29T20:33:57.059Z,3.70
2023-03-29T20:38:00.713Z,4.80
2023-03-29T20:42:03.521Z,5.40
2023-03-29T20:46:14.386Z,4.32
2023-03-29T20:50:20.706Z,3.88
2023-03-29T20:54:23.798Z,3.15
2023-03-29T20:58:27.319Z,3.00
2023-03-29T21:02:30.161Z,3.10
2023-03-29T21:06:34.357Z,3.10
2023-03-29T21:10:37.599Z,3.63
2023-03-29T21:14:40.367Z,3.25
2023-03-29T21:18:43.491Z,3.25
2023-03-29T21:22:47.677Z,3.55
2023-03-29T21:26:51.125Z,3.45
2023-03-29T21:30:54.031Z,3.45
2023-03-29T21:34:56.793Z,3.92
2023-03-29T21:39:01.263Z,4.38
2023-03-29T21:43:04.076Z,4.30
2023-03-29T21:47:06.863Z,4.60
2023-03-29T21:51:10.072Z,4.85
2023-03-29T21:55:14.531Z,4.40
2023-03-29T21:59:17.404Z,5.38
2023-03-29T22:03:20.437Z,5.38
2023-03-29T22:07:28.046Z,5.22
2023-03-29T22:11:32.549Z,5.70
2023-03-29T22:15:36.065Z,5.68
2023-03-29T22:19:39.879Z,8.32
2023-03-29T22:23:43.549Z,5.95
2023-03-29T22:27:49.243Z,6.10
2023-03-29T22:31:52.339Z,8.05
2023-03-29T22:35:55.157Z,4.80
2023-03-29T22:39:57.990Z,5.07
2023-03-29T22:44:02.400Z,5.57
2023-03-29T22:48:05.665Z,5.25
2023-03-29T22:52:08.859Z,5.13
2023-03-29T22:56:11.562Z,4.53
2023-03-29T23:00:17.546Z,5.22
2023-03-29T23:04:20.482Z,5.30
2023-03-29T23:08:23.621Z,4.57
2023-03-29T23:12:27.150Z,6.00
2023-03-29T23:16:31.706Z,5.05
2023-03-29T23:20:35.382Z,5.93
2023-03-29T23:24:38.207Z,3.63
2023-03-29T23:28:41.068Z,5.60
2023-03-29T23:32:45.706Z,6.05
2023-03-29T23:36:48.481Z,5.43
2023-03-29T23:40:55.382Z,5.18
2023-03-29T23:44:58.173Z,7.28
2023-03-29T23:49:02.436Z,7.57
2023-03-29T23:53:05.237Z,6.15
2023-03-29T23:57:08.116Z,5.30
